sensor_id;sensor_type;location;lat;lon;timestamp;P1;durP1;ratioP1;P2;durP2;ratioP2
78296;SDS011;67555;47.660;19.622;2023-06-14T00:01:53;0.73;;;0.73;;
78296;SDS011;67555;47.660;19.622;2023-06-14T00:04:20;0.55;;;0.55;;
78296;SDS011;67555;47.660;19.622;2023-06-14T00:06:46;0.60;;;0.60;;
78296;SDS011;67555;47.660;19.622;2023-06-14T00:09:13;0.63;;;0.63;;
78296;SDS011;67555;47.660;19.622;2023-06-14T00:11:40;0.50;;;0.50;;
78296;SDS011;67555;47.660;19.622;2023-06-14T00:14:06;0.68;;;0.68;;
78296;SDS011;67555;47.660;19.622;2023-06-14T00:16:32;0.38;;;0.38;;
78296;SDS011;67555;47.660;19.622;2023-06-14T00:19:00;0.47;;;0.43;;
78296;SDS011;67555;47.660;19.622;2023-06-14T00:21:29;0.65;;;0.65;;
78296;SDS011;67555;47.660;19.622;2023-06-14T00:23:56;0.45;;;0.45;;
78296;SDS011;67555;47.660;19.622;2023-06-14T00:26:23;0.50;;;0.50;;
78296;SDS011;67555;47.660;19.622;2023-06-14T00:28:49;0.68;;;0.68;;
78296;SDS011;67555;47.660;19.622;2023-06-14T00:31:14;0.57;;;0.57;;
78296;SDS011;67555;47.660;19.622;2023-06-14T00:33:40;0.60;;;0.60;;
78296;SDS011;67555;47.660;19.622;2023-06-14T00:36:06;0.70;;;0.70;;
78296;SDS011;67555;47.660;19.622;2023-06-14T00:38:32;0.40;;;0.40;;
78296;SDS011;67555;47.660;19.622;2023-06-14T00:40:57;0.47;;;0.47;;
78296;SDS011;67555;47.660;19.622;2023-06-14T00:43:23;0.28;;;0.28;;
78296;SDS011;67555;47.660;19.622;2023-06-14T00:45:50;0.65;;;0.65;;
78296;SDS011;67555;47.660;19.622;2023-06-14T00:48:16;0.50;;;0.50;;
78296;SDS011;67555;47.660;19.622;2023-06-14T00:50:42;0.60;;;0.60;;
78296;SDS011;67555;47.660;19.622;2023-06-14T00:53:11;0.38;;;0.38;;
78296;SDS011;67555;47.660;19.622;2023-06-14T00:55:37;0.63;;;0.63;;
78296;SDS011;67555;47.660;19.622;2023-06-14T00:58:03;0.60;;;0.60;;
78296;SDS011;67555;47.660;19.622;2023-06-14T01:00:29;0.88;;;0.80;;
78296;SDS011;67555;47.660;19.622;2023-06-14T01:02:54;0.50;;;0.50;;
78296;SDS011;67555;47.660;19.622;2023-06-14T01:05:21;0.70;;;0.70;;
78296;SDS011;67555;47.660;19.622;2023-06-14T01:10:27;0.43;;;0.43;;
78296;SDS011;67555;47.660;19.622;2023-06-14T01:13:08;0.45;;;0.45;;
78296;SDS011;67555;47.660;19.622;2023-06-14T01:15:40;0.50;;;0.50;;
78296;SDS011;67555;47.660;19.622;2023-06-14T01:18:07;0.25;;;0.25;;
78296;SDS011;67555;47.660;19.622;2023-06-14T01:20:42;0.60;;;0.60;;
78296;SDS011;67555;47.660;19.622;2023-06-14T01:23:10;0.63;;;0.60;;
78296;SDS011;67555;47.660;19.622;2023-06-14T01:25:37;0.50;;;0.50;;
78296;SDS011;67555;47.660;19.622;2023-06-14T01:28:05;0.70;;;0.70;;
78296;SDS011;67555;47.660;19.622;2023-06-14T01:30:36;0.60;;;0.60;;
78296;SDS011;67555;47.660;19.622;2023-06-14T01:33:03;0.68;;;0.68;;
78296;SDS011;67555;47.660;19.622;2023-06-14T01:35:30;0.60;;;0.60;;
78296;SDS011;67555;47.660;19.622;2023-06-14T01:37:56;0.45;;;0.45;;
78296;SDS011;67555;47.660;19.622;2023-06-14T01:40:24;0.57;;;0.57;;
78296;SDS011;67555;47.660;19.622;2023-06-14T01:42:50;0.57;;;0.57;;
78296;SDS011;67555;47.660;19.622;2023-06-14T01:45:17;0.30;;;0.30;;
78296;SDS011;67555;47.660;19.622;2023-06-14T01:47:44;0.52;;;0.52;;
78296;SDS011;67555;47.660;19.622;2023-06-14T01:50:10;0.70;;;0.70;;
78296;SDS011;67555;47.660;19.622;2023-06-14T01:52:37;0.52;;;0.52;;
78296;SDS011;67555;47.660;19.622;2023-06-14T01:55:04;0.55;;;0.55;;
78296;SDS011;67555;47.660;19.622;2023-06-14T01:57:31;0.65;;;0.65;;
78296;SDS011;67555;47.660;19.622;2023-06-14T01:59:57;0.50;;;0.50;;
78296;SDS011;67555;47.660;19.622;2023-06-14T02:02:22;0.57;;;0.57;;
78296;SDS011;67555;47.660;19.622;2023-06-14T02:04:48;0.70;;;0.70;;
78296;SDS011;67555;47.660;19.622;2023-06-14T02:07:14;0.30;;;0.30;;
78296;SDS011;67555;47.660;19.622;2023-06-14T02:09:40;0.43;;;0.43;;
78296;SDS011;67555;47.660;19.622;2023-06-14T02:12:06;0.52;;;0.52;;
78296;SDS011;67555;47.660;19.622;2023-06-14T02:14:33;0.63;;;0.63;;
78296;SDS011;67555;47.660;19.622;2023-06-14T02:16:58;0.70;;;0.70;;
78296;SDS011;67555;47.660;19.622;2023-06-14T02:19:26;0.50;;;0.50;;
78296;SDS011;67555;47.660;19.622;2023-06-14T02:21:52;0.80;;;0.80;;
78296;SDS011;67555;47.660;19.622;2023-06-14T02:24:17;0.60;;;0.60;;
78296;SDS011;67555;47.660;19.622;2023-06-14T02:26:43;0.60;;;0.60;;
78296;SDS011;67555;47.660;19.622;2023-06-14T02:29:09;0.57;;;0.57;;
78296;SDS011;67555;47.660;19.622;2023-06-14T02:31:37;0.63;;;0.63;;
78296;SDS011;67555;47.660;19.622;2023-06-14T02:34:04;0.57;;;0.57;;
78296;SDS011;67555;47.660;19.622;2023-06-14T02:36:30;0.45;;;0.45;;
78296;SDS011;67555;47.660;19.622;2023-06-14T02:38:56;0.38;;;0.38;;
78296;SDS011;67555;47.660;19.622;2023-06-14T02:41:25;0.50;;;0.50;;
78296;SDS011;67555;47.660;19.622;2023-06-14T02:43:52;0.70;;;0.70;;
78296;SDS011;67555;47.660;19.622;2023-06-14T02:46:18;0.60;;;0.60;;
78296;SDS011;67555;47.660;19.622;2023-06-14T02:48:43;0.52;;;0.52;;
78296;SDS011;67555;47.660;19.622;2023-06-14T02:51:10;0.75;;;0.75;;
78296;SDS011;67555;47.660;19.622;2023-06-14T02:53:36;0.50;;;0.50;;
78296;SDS011;67555;47.660;19.622;2023-06-14T02:56:02;0.47;;;0.47;;
78296;SDS011;67555;47.660;19.622;2023-06-14T02:58:29;0.60;;;0.60;;
78296;SDS011;67555;47.660;19.622;2023-06-14T03:00:55;0.60;;;0.60;;
78296;SDS011;67555;47.660;19.622;2023-06-14T03:03:21;0.50;;;0.50;;
78296;SDS011;67555;47.660;19.622;2023-06-14T03:05:49;0.95;;;0.45;;
78296;SDS011;67555;47.660;19.622;2023-06-14T03:08:16;0.50;;;0.50;;
78296;SDS011;67555;47.660;19.622;2023-06-14T03:10:47;1.20;;;0.52;;
78296;SDS011;67555;47.660;19.622;2023-06-14T03:13:14;1.35;;;0.80;;
78296;SDS011;67555;47.660;19.622;2023-06-14T03:15:45;0.38;;;0.38;;
78296;SDS011;67555;47.660;19.622;2023-06-14T03:18:12;0.50;;;0.50;;
78296;SDS011;67555;47.660;19.622;2023-06-14T03:20:40;0.30;;;0.30;;
78296;SDS011;67555;47.660;19.622;2023-06-14T03:23:06;0.60;;;0.60;;
78296;SDS011;67555;47.660;19.622;2023-06-14T03:25:32;0.60;;;0.60;;
78296;SDS011;67555;47.660;19.622;2023-06-14T03:28:03;0.80;;;0.55;;
78296;SDS011;67555;47.660;19.622;2023-06-14T03:30:29;0.50;;;0.50;;
78296;SDS011;67555;47.660;19.622;2023-06-14T03:32:56;0.50;;;0.50;;
78296;SDS011;67555;47.660;19.622;2023-06-14T03:35:22;0.65;;;0.65;;
78296;SDS011;67555;47.660;19.622;2023-06-14T03:37:48;0.85;;;0.70;;
78296;SDS011;67555;47.660;19.622;2023-06-14T03:40:15;0.40;;;0.40;;
78296;SDS011;67555;47.660;19.622;2023-06-14T03:42:42;0.50;;;0.50;;
78296;SDS011;67555;47.660;19.622;2023-06-14T03:45:08;0.50;;;0.50;;
78296;SDS011;67555;47.660;19.622;2023-06-14T03:47:35;0.50;;;0.50;;
78296;SDS011;67555;47.660;19.622;2023-06-14T03:50:01;0.60;;;0.60;;
78296;SDS011;67555;47.660;19.622;2023-06-14T03:52:29;0.55;;;0.55;;
78296;SDS011;67555;47.660;19.622;2023-06-14T03:54:56;0.50;;;0.50;;
78296;SDS011;67555;47.660;19.622;2023-06-14T03:57:22;0.70;;;0.70;;
78296;SDS011;67555;47.660;19.622;2023-06-14T03:59:49;0.60;;;0.60;;
78296;SDS011;67555;47.660;19.622;2023-06-14T04:02:15;0.30;;;0.30;;
78296;SDS011;67555;47.660;19.622;2023-06-14T04:04:44;0.22;;;0.22;;
78296;SDS011;67555;47.660;19.622;2023-06-14T04:07:14;1.00;;;0.73;;
78296;SDS011;67555;47.660;19.622;2023-06-14T04:09:43;0.55;;;0.55;;
78296;SDS011;67555;47.660;19.622;2023-06-14T04:12:09;0.50;;;0.50;;
78296;SDS011;67555;47.660;19.622;2023-06-14T04:14:36;0.55;;;0.55;;
78296;SDS011;67555;47.660;19.622;2023-06-14T04:17:02;0.55;;;0.55;;
78296;SDS011;67555;47.660;19.622;2023-06-14T04:19:28;0.70;;;0.70;;
78296;SDS011;67555;47.660;19.622;2023-06-14T04:21:54;0.38;;;0.38;;
78296;SDS011;67555;47.660;19.622;2023-06-14T04:24:20;0.50;;;0.50;;
78296;SDS011;67555;47.660;19.622;2023-06-14T04:26:46;0.52;;;0.52;;
78296;SDS011;67555;47.660;19.622;2023-06-14T04:29:16;0.50;;;0.50;;
78296;SDS011;67555;47.660;19.622;2023-06-14T04:31:44;0.55;;;0.55;;
78296;SDS011;67555;47.660;19.622;2023-06-14T04:34:11;0.80;;;0.80;;
78296;SDS011;67555;47.660;19.622;2023-06-14T04:36:43;0.52;;;0.52;;
78296;SDS011;67555;47.660;19.622;2023-06-14T04:39:14;0.63;;;0.63;;
78296;SDS011;67555;47.660;19.622;2023-06-14T04:41:43;0.75;;;0.75;;
78296;SDS011;67555;47.660;19.622;2023-06-14T04:44:09;0.52;;;0.52;;
78296;SDS011;67555;47.660;19.622;2023-06-14T04:46:35;0.68;;;0.68;;
78296;SDS011;67555;47.660;19.622;2023-06-14T04:49:21;0.70;;;0.70;;
78296;SDS011;67555;47.660;19.622;2023-06-14T04:51:48;0.70;;;0.70;;
78296;SDS011;67555;47.660;19.622;2023-06-14T04:54:22;0.45;;;0.45;;
78296;SDS011;67555;47.660;19.622;2023-06-14T04:56:50;0.60;;;0.60;;
78296;SDS011;67555;47.660;19.622;2023-06-14T04:59:18;0.63;;;0.63;;
78296;SDS011;67555;47.660;19.622;2023-06-14T05:01:44;1.23;;;0.65;;
78296;SDS011;67555;47.660;19.622;2023-06-14T05:04:16;0.80;;;0.80;;
78296;SDS011;67555;47.660;19.622;2023-06-14T05:06:43;0.80;;;0.80;;
78296;SDS011;67555;47.660;19.622;2023-06-14T05:09:19;0.70;;;0.70;;
78296;SDS011;67555;47.660;19.622;2023-06-14T05:11:46;0.70;;;0.70;;
78296;SDS011;67555;47.660;19.622;2023-06-14T05:14:12;0.60;;;0.60;;
78296;SDS011;67555;47.660;19.622;2023-06-14T05:16:39;0.50;;;0.50;;
78296;SDS011;67555;47.660;19.622;2023-06-14T05:19:05;0.80;;;0.80;;
78296;SDS011;67555;47.660;19.622;2023-06-14T05:21:31;0.45;;;0.45;;
78296;SDS011;67555;47.660;19.622;2023-06-14T05:23:59;0.70;;;0.70;;
78296;SDS011;67555;47.660;19.622;2023-06-14T05:26:25;0.65;;;0.65;;
78296;SDS011;67555;47.660;19.622;2023-06-14T05:28:58;0.50;;;0.50;;
78296;SDS011;67555;47.660;19.622;2023-06-14T05:31:27;0.70;;;0.70;;
78296;SDS011;67555;47.660;19.622;2023-06-14T05:33:53;0.57;;;0.57;;
78296;SDS011;67555;47.660;19.622;2023-06-14T05:36:20;0.73;;;0.73;;
78296;SDS011;67555;47.660;19.622;2023-06-14T05:38:48;0.70;;;0.70;;
78296;SDS011;67555;47.660;19.622;2023-06-14T05:41:15;0.40;;;0.40;;
78296;SDS011;67555;47.660;19.622;2023-06-14T05:43:41;0.60;;;0.60;;
78296;SDS011;67555;47.660;19.622;2023-06-14T05:46:07;0.52;;;0.52;;
78296;SDS011;67555;47.660;19.622;2023-06-14T05:48:32;0.55;;;0.55;;
78296;SDS011;67555;47.660;19.622;2023-06-14T05:50:58;0.50;;;0.50;;
78296;SDS011;67555;47.660;19.622;2023-06-14T05:53:25;0.50;;;0.50;;
78296;SDS011;67555;47.660;19.622;2023-06-14T05:55:50;0.50;;;0.50;;
78296;SDS011;67555;47.660;19.622;2023-06-14T05:58:20;0.75;;;0.75;;
78296;SDS011;67555;47.660;19.622;2023-06-14T06:00:46;0.47;;;0.47;;
78296;SDS011;67555;47.660;19.622;2023-06-14T06:03:12;0.55;;;0.55;;
78296;SDS011;67555;47.660;19.622;2023-06-14T06:05:38;0.70;;;0.70;;
78296;SDS011;67555;47.660;19.622;2023-06-14T06:08:04;0.70;;;0.70;;
78296;SDS011;67555;47.660;19.622;2023-06-14T06:10:30;0.70;;;0.70;;
78296;SDS011;67555;47.660;19.622;2023-06-14T06:12:56;0.30;;;0.30;;
78296;SDS011;67555;47.660;19.622;2023-06-14T06:15:22;0.40;;;0.40;;
78296;SDS011;67555;47.660;19.622;2023-06-14T06:17:47;0.40;;;0.40;;
78296;SDS011;67555;47.660;19.622;2023-06-14T06:20:13;0.55;;;0.50;;
78296;SDS011;67555;47.660;19.622;2023-06-14T06:22:39;0.45;;;0.45;;
78296;SDS011;67555;47.660;19.622;2023-06-14T06:25:05;0.40;;;0.40;;
78296;SDS011;67555;47.660;19.622;2023-06-14T06:27:31;0.40;;;0.40;;
78296;SDS011;67555;47.660;19.622;2023-06-14T06:29:57;0.40;;;0.40;;
78296;SDS011;67555;47.660;19.622;2023-06-14T06:32:24;0.20;;;0.20;;
78296;SDS011;67555;47.660;19.622;2023-06-14T06:34:50;0.55;;;0.55;;
78296;SDS011;67555;47.660;19.622;2023-06-14T06:37:17;0.38;;;0.38;;
78296;SDS011;67555;47.660;19.622;2023-06-14T06:39:42;0.30;;;0.30;;
78296;SDS011;67555;47.660;19.622;2023-06-14T06:42:08;0.43;;;0.43;;
78296;SDS011;67555;47.660;19.622;2023-06-14T06:44:35;0.50;;;0.50;;
78296;SDS011;67555;47.660;19.622;2023-06-14T06:47:01;0.30;;;0.30;;
78296;SDS011;67555;47.660;19.622;2023-06-14T06:49:27;0.35;;;0.35;;
78296;SDS011;67555;47.660;19.622;2023-06-14T06:52:00;0.32;;;0.32;;
78296;SDS011;67555;47.660;19.622;2023-06-14T06:54:29;0.45;;;0.45;;
78296;SDS011;67555;47.660;19.622;2023-06-14T06:56:55;0.38;;;0.38;;
78296;SDS011;67555;47.660;19.622;2023-06-14T06:59:21;0.30;;;0.30;;
78296;SDS011;67555;47.660;19.622;2023-06-14T07:01:47;0.47;;;0.47;;
78296;SDS011;67555;47.660;19.622;2023-06-14T07:04:13;0.32;;;0.32;;
78296;SDS011;67555;47.660;19.622;2023-06-14T07:06:39;0.98;;;0.60;;
78296;SDS011;67555;47.660;19.622;2023-06-14T07:09:06;0.30;;;0.30;;
78296;SDS011;67555;47.660;19.622;2023-06-14T07:11:37;0.30;;;0.30;;
78296;SDS011;67555;47.660;19.622;2023-06-14T07:14:06;0.17;;;0.17;;
78296;SDS011;67555;47.660;19.622;2023-06-14T07:16:32;0.50;;;0.50;;
78296;SDS011;67555;47.660;19.622;2023-06-14T07:18:58;0.57;;;0.45;;
78296;SDS011;67555;47.660;19.622;2023-06-14T07:21:25;0.30;;;0.30;;
78296;SDS011;67555;47.660;19.622;2023-06-14T07:23:52;0.15;;;0.15;;
78296;SDS011;67555;47.660;19.622;2023-06-14T07:26:18;0.30;;;0.30;;
78296;SDS011;67555;47.660;19.622;2023-06-14T07:28:44;0.30;;;0.30;;
78296;SDS011;67555;47.660;19.622;2023-06-14T07:31:10;0.50;;;0.50;;
78296;SDS011;67555;47.660;19.622;2023-06-14T07:33:37;0.40;;;0.40;;
78296;SDS011;67555;47.660;19.622;2023-06-14T07:36:03;0.40;;;0.40;;
78296;SDS011;67555;47.660;19.622;2023-06-14T07:38:29;0.47;;;0.47;;
78296;SDS011;67555;47.660;19.622;2023-06-14T07:40:55;0.40;;;0.35;;
78296;SDS011;67555;47.660;19.622;2023-06-14T07:43:20;0.28;;;0.28;;
78296;SDS011;67555;47.660;19.622;2023-06-14T07:45:46;1.08;;;0.30;;
78296;SDS011;67555;47.660;19.622;2023-06-14T07:48:12;0.40;;;0.40;;
78296;SDS011;67555;47.660;19.622;2023-06-14T07:50:38;0.10;;;0.10;;
78296;SDS011;67555;47.660;19.622;2023-06-14T07:53:03;0.40;;;0.40;;
78296;SDS011;67555;47.660;19.622;2023-06-14T07:55:29;0.32;;;0.32;;
78296;SDS011;67555;47.660;19.622;2023-06-14T07:57:57;0.40;;;0.40;;
78296;SDS011;67555;47.660;19.622;2023-06-14T08:00:23;0.50;;;0.50;;
78296;SDS011;67555;47.660;19.622;2023-06-14T08:02:49;0.43;;;0.43;;
78296;SDS011;67555;47.660;19.622;2023-06-14T08:05:17;0.30;;;0.30;;
78296;SDS011;67555;47.660;19.622;2023-06-14T08:07:43;0.25;;;0.25;;
78296;SDS011;67555;47.660;19.622;2023-06-14T08:10:08;0.40;;;0.40;;
78296;SDS011;67555;47.660;19.622;2023-06-14T08:12:34;0.47;;;0.43;;
78296;SDS011;67555;47.660;19.622;2023-06-14T08:15:00;0.50;;;0.50;;
78296;SDS011;67555;47.660;19.622;2023-06-14T08:17:26;0.30;;;0.30;;
78296;SDS011;67555;47.660;19.622;2023-06-14T08:19:52;0.50;;;0.50;;
78296;SDS011;67555;47.660;19.622;2023-06-14T08:22:22;0.60;;;0.60;;
78296;SDS011;67555;47.660;19.622;2023-06-14T08:24:49;0.20;;;0.20;;
78296;SDS011;67555;47.660;19.622;2023-06-14T08:27:16;0.45;;;0.45;;
78296;SDS011;67555;47.660;19.622;2023-06-14T08:29:42;0.28;;;0.28;;
78296;SDS011;67555;47.660;19.622;2023-06-14T08:32:08;0.38;;;0.38;;
78296;SDS011;67555;47.660;19.622;2023-06-14T08:34:34;0.30;;;0.28;;
78296;SDS011;67555;47.660;19.622;2023-06-14T08:37:00;0.40;;;0.40;;
78296;SDS011;67555;47.660;19.622;2023-06-14T08:39:26;0.45;;;0.45;;
78296;SDS011;67555;47.660;19.622;2023-06-14T08:41:52;0.47;;;0.47;;
78296;SDS011;67555;47.660;19.622;2023-06-14T08:44:18;0.43;;;0.40;;
78296;SDS011;67555;47.660;19.622;2023-06-14T08:46:43;0.20;;;0.20;;
78296;SDS011;67555;47.660;19.622;2023-06-14T08:49:13;0.45;;;0.45;;
78296;SDS011;67555;47.660;19.622;2023-06-14T08:51:41;1.73;;;0.43;;
78296;SDS011;67555;47.660;19.622;2023-06-14T08:54:08;0.43;;;0.43;;
78296;SDS011;67555;47.660;19.622;2023-06-14T08:56:37;0.57;;;0.57;;
78296;SDS011;67555;47.660;19.622;2023-06-14T08:59:04;0.43;;;0.43;;
78296;SDS011;67555;47.660;19.622;2023-06-14T09:01:34;0.20;;;0.20;;
78296;SDS011;67555;47.660;19.622;2023-06-14T09:04:01;0.20;;;0.20;;
78296;SDS011;67555;47.660;19.622;2023-06-14T09:06:27;0.28;;;0.28;;
78296;SDS011;67555;47.660;19.622;2023-06-14T09:08:54;0.30;;;0.30;;
78296;SDS011;67555;47.660;19.622;2023-06-14T09:13:48;0.22;;;0.22;;
78296;SDS011;67555;47.660;19.622;2023-06-14T09:16:14;0.10;;;0.10;;
78296;SDS011;67555;47.660;19.622;2023-06-14T09:18:41;0.25;;;0.25;;
78296;SDS011;67555;47.660;19.622;2023-06-14T09:21:14;0.30;;;0.30;;
78296;SDS011;67555;47.660;19.622;2023-06-14T09:23:45;0.30;;;0.30;;
78296;SDS011;67555;47.660;19.622;2023-06-14T09:26:16;0.30;;;0.30;;
78296;SDS011;67555;47.660;19.622;2023-06-14T09:28:49;0.70;;;0.20;;
78296;SDS011;67555;47.660;19.622;2023-06-14T09:31:19;0.25;;;0.25;;
78296;SDS011;67555;47.660;19.622;2023-06-14T09:33:46;0.38;;;0.38;;
78296;SDS011;67555;47.660;19.622;2023-06-14T09:36:23;0.30;;;0.30;;
78296;SDS011;67555;47.660;19.622;2023-06-14T09:38:57;0.22;;;0.20;;
78296;SDS011;67555;47.660;19.622;2023-06-14T09:41:33;0.50;;;0.50;;
78296;SDS011;67555;47.660;19.622;2023-06-14T09:44:00;0.20;;;0.20;;
78296;SDS011;67555;47.660;19.622;2023-06-14T09:46:28;0.10;;;0.10;;
78296;SDS011;67555;47.660;19.622;2023-06-14T09:48:58;0.10;;;0.10;;
78296;SDS011;67555;47.660;19.622;2023-06-14T09:51:24;0.32;;;0.32;;
78296;SDS011;67555;47.660;19.622;2023-06-14T09:53:51;0.20;;;0.20;;
78296;SDS011;67555;47.660;19.622;2023-06-14T09:56:31;1.40;;;0.30;;
78296;SDS011;67555;47.660;19.622;2023-06-14T09:58:59;0.43;;;0.43;;
78296;SDS011;67555;47.660;19.622;2023-06-14T10:01:29;0.38;;;0.38;;
78296;SDS011;67555;47.660;19.622;2023-06-14T10:04:05;0.30;;;0.30;;
78296;SDS011;67555;47.660;19.622;2023-06-14T10:06:32;0.25;;;0.25;;
78296;SDS011;67555;47.660;19.622;2023-06-14T10:09:03;0.40;;;0.40;;
78296;SDS011;67555;47.660;19.622;2023-06-14T10:11:30;0.90;;;0.47;;
78296;SDS011;67555;47.660;19.622;2023-06-14T10:13:57;0.30;;;0.30;;
78296;SDS011;67555;47.660;19.622;2023-06-14T10:19:22;0.15;;;0.15;;
78296;SDS011;67555;47.660;19.622;2023-06-14T10:22:04;0.25;;;0.20;;
78296;SDS011;67555;47.660;19.622;2023-06-14T10:24:39;0.30;;;0.30;;
78296;SDS011;67555;47.660;19.622;2023-06-14T10:27:07;0.38;;;0.38;;
78296;SDS011;67555;47.660;19.622;2023-06-14T10:32:21;0.20;;;0.20;;
78296;SDS011;67555;47.660;19.622;2023-06-14T10:34:53;0.52;;;0.52;;
78296;SDS011;67555;47.660;19.622;2023-06-14T10:37:23;0.17;;;0.17;;
78296;SDS011;67555;47.660;19.622;2023-06-14T10:39:50;0.30;;;0.30;;
78296;SDS011;67555;47.660;19.622;2023-06-14T10:42:16;0.10;;;0.10;;
78296;SDS011;67555;47.660;19.622;2023-06-14T10:44:45;0.35;;;0.35;;
78296;SDS011;67555;47.660;19.622;2023-06-14T10:47:25;0.30;;;0.30;;
78296;SDS011;67555;47.660;19.622;2023-06-14T10:49:52;0.20;;;0.20;;
78296;SDS011;67555;47.660;19.622;2023-06-14T10:52:27;0.43;;;0.43;;
78296;SDS011;67555;47.660;19.622;2023-06-14T10:57:34;0.32;;;0.32;;
78296;SDS011;67555;47.660;19.622;2023-06-14T11:00:02;0.10;;;0.10;;
78296;SDS011;67555;47.660;19.622;2023-06-14T11:05:25;0.30;;;0.30;;
78296;SDS011;67555;47.660;19.622;2023-06-14T11:08:04;0.30;;;0.30;;
78296;SDS011;67555;47.660;19.622;2023-06-14T11:11:01;0.20;;;0.20;;
78296;SDS011;67555;47.660;19.622;2023-06-14T11:13:31;0.25;;;0.25;;
78296;SDS011;67555;47.660;19.622;2023-06-14T11:15:57;0.30;;;0.30;;
78296;SDS011;67555;47.660;19.622;2023-06-14T11:18:23;0.82;;;0.30;;
78296;SDS011;67555;47.660;19.622;2023-06-14T11:20:50;0.20;;;0.17;;
78296;SDS011;67555;47.660;19.622;2023-06-14T11:23:16;0.15;;;0.15;;
78296;SDS011;67555;47.660;19.622;2023-06-14T11:25:41;0.10;;;0.10;;
78296;SDS011;67555;47.660;19.622;2023-06-14T11:28:07;0.20;;;0.20;;
78296;SDS011;67555;47.660;19.622;2023-06-14T11:30:33;0.30;;;0.30;;
78296;SDS011;67555;47.660;19.622;2023-06-14T11:32:59;0.28;;;0.28;;
78296;SDS011;67555;47.660;19.622;2023-06-14T11:35:25;0.20;;;0.20;;
78296;SDS011;67555;47.660;19.622;2023-06-14T11:37:55;0.52;;;0.40;;
78296;SDS011;67555;47.660;19.622;2023-06-14T11:40:23;0.17;;;0.17;;
78296;SDS011;67555;47.660;19.622;2023-06-14T11:42:54;0.30;;;0.30;;
78296;SDS011;67555;47.660;19.622;2023-06-14T11:45:26;0.20;;;0.20;;
78296;SDS011;67555;47.660;19.622;2023-06-14T11:47:54;0.28;;;0.28;;
78296;SDS011;67555;47.660;19.622;2023-06-14T11:50:24;0.10;;;0.10;;
78296;SDS011;67555;47.660;19.622;2023-06-14T11:52:54;0.40;;;0.40;;
78296;SDS011;67555;47.660;19.622;2023-06-14T11:55:21;0.30;;;0.30;;
78296;SDS011;67555;47.660;19.622;2023-06-14T11:57:47;0.10;;;0.10;;
78296;SDS011;67555;47.660;19.622;2023-06-14T12:00:13;0.20;;;0.20;;
78296;SDS011;67555;47.660;19.622;2023-06-14T12:02:42;0.38;;;0.30;;
78296;SDS011;67555;47.660;19.622;2023-06-14T12:05:09;0.10;;;0.10;;
78296;SDS011;67555;47.660;19.622;2023-06-14T12:07:38;0.20;;;0.20;;
78296;SDS011;67555;47.660;19.622;2023-06-14T12:10:09;0.22;;;0.22;;
78296;SDS011;67555;47.660;19.622;2023-06-14T12:12:39;0.10;;;0.10;;
78296;SDS011;67555;47.660;19.622;2023-06-14T12:15:09;0.65;;;0.35;;
78296;SDS011;67555;47.660;19.622;2023-06-14T12:17:38;0.25;;;0.25;;
78296;SDS011;67555;47.660;19.622;2023-06-14T12:20:11;0.30;;;0.30;;
78296;SDS011;67555;47.660;19.622;2023-06-14T12:22:55;0.10;;;0.10;;
78296;SDS011;67555;47.660;19.622;2023-06-14T12:25:26;0.20;;;0.20;;
78296;SDS011;67555;47.660;19.622;2023-06-14T12:27:59;0.70;;;0.35;;
78296;SDS011;67555;47.660;19.622;2023-06-14T12:30:30;0.13;;;0.13;;
78296;SDS011;67555;47.660;19.622;2023-06-14T12:32:55;0.47;;;0.20;;
78296;SDS011;67555;47.660;19.622;2023-06-14T12:35:21;0.13;;;0.13;;
78296;SDS011;67555;47.660;19.622;2023-06-14T12:37:47;0.20;;;0.20;;
78296;SDS011;67555;47.660;19.622;2023-06-14T12:40:13;0.45;;;0.45;;
78296;SDS011;67555;47.660;19.622;2023-06-14T12:42:39;0.20;;;0.20;;
78296;SDS011;67555;47.660;19.622;2023-06-14T12:45:06;0.10;;;0.10;;
78296;SDS011;67555;47.660;19.622;2023-06-14T12:47:31;0.05;;;0.05;;
78296;SDS011;67555;47.660;19.622;2023-06-14T12:49:57;0.15;;;0.15;;
78296;SDS011;67555;47.660;19.622;2023-06-14T12:52:23;0.20;;;0.20;;
78296;SDS011;67555;47.660;19.622;2023-06-14T12:54:49;0.30;;;0.30;;
78296;SDS011;67555;47.660;19.622;2023-06-14T12:57:15;0.10;;;0.10;;
78296;SDS011;67555;47.660;19.622;2023-06-14T12:59:40;0.30;;;0.28;;
78296;SDS011;67555;47.660;19.622;2023-06-14T13:04:38;0.20;;;0.20;;
78296;SDS011;67555;47.660;19.622;2023-06-14T13:07:04;0.10;;;0.10;;
78296;SDS011;67555;47.660;19.622;2023-06-14T13:09:30;0.28;;;0.20;;
78296;SDS011;67555;47.660;19.622;2023-06-14T13:11:56;0.13;;;0.13;;
78296;SDS011;67555;47.660;19.622;2023-06-14T13:14:22;0.20;;;0.20;;
78296;SDS011;67555;47.660;19.622;2023-06-14T13:16:47;0.10;;;0.10;;
78296;SDS011;67555;47.660;19.622;2023-06-14T13:19:13;0.47;;;0.47;;
78296;SDS011;67555;47.660;19.622;2023-06-14T13:21:39;0.20;;;0.20;;
78296;SDS011;67555;47.660;19.622;2023-06-14T13:24:05;0.10;;;0.10;;
78296;SDS011;67555;47.660;19.622;2023-06-14T13:26:32;0.22;;;0.20;;
78296;SDS011;67555;47.660;19.622;2023-06-14T13:28:58;0.10;;;0.10;;
78296;SDS011;67555;47.660;19.622;2023-06-14T13:31:23;0.22;;;0.20;;
78296;SDS011;67555;47.660;19.622;2023-06-14T13:33:49;0.25;;;0.25;;
78296;SDS011;67555;47.660;19.622;2023-06-14T13:36:15;0.32;;;0.20;;
78296;SDS011;67555;47.660;19.622;2023-06-14T13:38:41;0.20;;;0.20;;
78296;SDS011;67555;47.660;19.622;2023-06-14T13:41:06;0.28;;;0.28;;
78296;SDS011;67555;47.660;19.622;2023-06-14T13:43:32;0.40;;;0.40;;
78296;SDS011;67555;47.660;19.622;2023-06-14T13:45:58;0.20;;;0.20;;
78296;SDS011;67555;47.660;19.622;2023-06-14T13:48:24;0.25;;;0.25;;
78296;SDS011;67555;47.660;19.622;2023-06-14T13:50:49;0.43;;;0.20;;
78296;SDS011;67555;47.660;19.622;2023-06-14T13:53:15;0.28;;;0.28;;
78296;SDS011;67555;47.660;19.622;2023-06-14T13:55:41;0.10;;;0.10;;
78296;SDS011;67555;47.660;19.622;2023-06-14T13:58:06;0.08;;;0.08;;
78296;SDS011;67555;47.660;19.622;2023-06-14T14:00:32;0.20;;;0.20;;
78296;SDS011;67555;47.660;19.622;2023-06-14T14:02:58;0.20;;;0.20;;
78296;SDS011;67555;47.660;19.622;2023-06-14T14:05:25;0.47;;;0.47;;
78296;SDS011;67555;47.660;19.622;2023-06-14T14:07:55;0.10;;;0.10;;
78296;SDS011;67555;47.660;19.622;2023-06-14T14:10:22;0.40;;;0.40;;
78296;SDS011;67555;47.660;19.622;2023-06-14T14:12:50;1.08;;;0.50;;
78296;SDS011;67555;47.660;19.622;2023-06-14T14:15:16;0.30;;;0.30;;
78296;SDS011;67555;47.660;19.622;2023-06-14T14:17:43;0.30;;;0.30;;
78296;SDS011;67555;47.660;19.622;2023-06-14T14:20:09;0.20;;;0.20;;
78296;SDS011;67555;47.660;19.622;2023-06-14T14:25:03;0.28;;;0.28;;
78296;SDS011;67555;47.660;19.622;2023-06-14T14:27:29;0.20;;;0.20;;
78296;SDS011;67555;47.660;19.622;2023-06-14T14:29:54;0.20;;;0.20;;
78296;SDS011;67555;47.660;19.622;2023-06-14T14:32:20;0.30;;;0.30;;
78296;SDS011;67555;47.660;19.622;2023-06-14T14:34:47;0.10;;;0.10;;
78296;SDS011;67555;47.660;19.622;2023-06-14T14:37:13;0.25;;;0.25;;
78296;SDS011;67555;47.660;19.622;2023-06-14T14:39:40;0.20;;;0.20;;
78296;SDS011;67555;47.660;19.622;2023-06-14T14:42:05;0.40;;;0.40;;
78296;SDS011;67555;47.660;19.622;2023-06-14T14:44:33;0.30;;;0.30;;
78296;SDS011;67555;47.660;19.622;2023-06-14T14:46:59;0.30;;;0.30;;
78296;SDS011;67555;47.660;19.622;2023-06-14T14:49:24;0.28;;;0.28;;
78296;SDS011;67555;47.660;19.622;2023-06-14T14:51:50;0.10;;;0.10;;
78296;SDS011;67555;47.660;19.622;2023-06-14T14:54:16;0.10;;;0.10;;
78296;SDS011;67555;47.660;19.622;2023-06-14T14:56:41;0.20;;;0.20;;